sensor_id;sensor_type;location;lat;lon;timestamp;P1;durP1;ratioP1;P2;durP2;ratioP2
46391;SDS011;32098;49.448;7.904;2024-01-06T00:00:04;4.47;;;2.03;;
46391;SDS011;32098;49.448;7.904;2024-01-06T00:02:37;5.87;;;2.27;;
46391;SDS011;32098;49.448;7.904;2024-01-06T00:05:04;8.57;;;2.40;;
46391;SDS011;32098;49.448;7.904;2024-01-06T00:07:31;7.47;;;2.17;;
46391;SDS011;32098;49.448;7.904;2024-01-06T00:09:58;5.57;;;2.50;;
46391;SDS011;32098;49.448;7.904;2024-01-06T00:12:25;6.57;;;2.47;;
46391;SDS011;32098;49.448;7.904;2024-01-06T00:14:51;6.47;;;2.77;;
46391;SDS011;32098;49.448;7.904;2024-01-06T00:17:18;6.20;;;3.10;;
46391;SDS011;32098;49.448;7.904;2024-01-06T00:19:44;7.00;;;2.90;;
46391;SDS011;32098;49.448;7.904;2024-01-06T00:22:20;5.20;;;2.30;;
46391;SDS011;32098;49.448;7.904;2024-01-06T00:24:47;7.73;;;2.90;;
46391;SDS011;32098;49.448;7.904;2024-01-06T00:27:14;5.03;;;2.23;;
46391;SDS011;32098;49.448;7.904;2024-01-06T00:29:42;7.00;;;2.30;;
46391;SDS011;32098;49.448;7.904;2024-01-06T00:32:09;5.83;;;2.30;;
46391;SDS011;32098;49.448;7.904;2024-01-06T00:34:36;9.27;;;2.87;;
46391;SDS011;32098;49.448;7.904;2024-01-06T00:37:02;6.17;;;2.83;;
46391;SDS011;32098;49.448;7.904;2024-01-06T00:39:29;7.00;;;2.53;;
46391;SDS011;32098;49.448;7.904;2024-01-06T00:41:56;4.37;;;2.50;;
46391;SDS011;32098;49.448;7.904;2024-01-06T00:44:22;8.33;;;2.77;;
46391;SDS011;32098;49.448;7.904;2024-01-06T00:46:49;7.00;;;2.67;;
46391;SDS011;32098;49.448;7.904;2024-01-06T00:49:16;6.23;;;2.47;;
46391;SDS011;32098;49.448;7.904;2024-01-06T00:51:42;10.17;;;2.57;;
46391;SDS011;32098;49.448;7.904;2024-01-06T00:54:09;6.57;;;2.67;;
46391;SDS011;32098;49.448;7.904;2024-01-06T00:56:36;6.13;;;2.20;;
46391;SDS011;32098;49.448;7.904;2024-01-06T00:59:02;7.53;;;2.87;;
46391;SDS011;32098;49.448;7.904;2024-01-06T01:01:29;4.87;;;2.73;;
46391;SDS011;32098;49.448;7.904;2024-01-06T01:03:55;5.90;;;2.67;;
46391;SDS011;32098;49.448;7.904;2024-01-06T01:06:22;5.97;;;3.23;;
46391;SDS011;32098;49.448;7.904;2024-01-06T01:08:49;5.47;;;2.53;;
46391;SDS011;32098;49.448;7.904;2024-01-06T01:11:15;5.20;;;3.10;;
46391;SDS011;32098;49.448;7.904;2024-01-06T01:13:44;4.67;;;2.70;;
46391;SDS011;32098;49.448;7.904;2024-01-06T01:16:11;4.60;;;2.67;;
46391;SDS011;32098;49.448;7.904;2024-01-06T01:18:37;6.57;;;2.60;;
46391;SDS011;32098;49.448;7.904;2024-01-06T01:21:04;6.10;;;2.87;;
46391;SDS011;32098;49.448;7.904;2024-01-06T01:23:31;6.27;;;2.50;;
46391;SDS011;32098;49.448;7.904;2024-01-06T01:25:58;5.17;;;2.57;;
46391;SDS011;32098;49.448;7.904;2024-01-06T01:28:24;6.30;;;2.60;;
46391;SDS011;32098;49.448;7.904;2024-01-06T01:30:51;5.17;;;2.50;;
46391;SDS011;32098;49.448;7.904;2024-01-06T01:33:18;8.10;;;2.67;;
46391;SDS011;32098;49.448;7.904;2024-01-06T01:35:45;5.47;;;2.50;;
46391;SDS011;32098;49.448;7.904;2024-01-06T01:38:11;3.33;;;2.40;;
46391;SDS011;32098;49.448;7.904;2024-01-06T01:40:38;3.73;;;2.10;;
46391;SDS011;32098;49.448;7.904;2024-01-06T01:43:05;4.63;;;2.37;;
46391;SDS011;32098;49.448;7.904;2024-01-06T01:45:31;3.80;;;1.80;;
46391;SDS011;32098;49.448;7.904;2024-01-06T01:47:58;3.97;;;2.20;;
46391;SDS011;32098;49.448;7.904;2024-01-06T01:50:24;2.87;;;1.70;;
46391;SDS011;32098;49.448;7.904;2024-01-06T01:52:54;4.77;;;2.00;;
46391;SDS011;32098;49.448;7.904;2024-01-06T01:55:21;3.97;;;1.90;;
46391;SDS011;32098;49.448;7.904;2024-01-06T01:57:47;5.03;;;1.90;;
46391;SDS011;32098;49.448;7.904;2024-01-06T02:00:14;3.70;;;2.00;;
46391;SDS011;32098;49.448;7.904;2024-01-06T02:02:41;2.60;;;1.70;;
46391;SDS011;32098;49.448;7.904;2024-01-06T02:05:08;4.07;;;2.20;;
46391;SDS011;32098;49.448;7.904;2024-01-06T02:07:35;4.53;;;1.77;;
46391;SDS011;32098;49.448;7.904;2024-01-06T02:10:02;6.07;;;2.33;;
46391;SDS011;32098;49.448;7.904;2024-01-06T02:12:29;5.97;;;1.97;;
46391;SDS011;32098;49.448;7.904;2024-01-06T02:14:56;3.00;;;2.10;;
46391;SDS011;32098;49.448;7.904;2024-01-06T02:17:22;2.90;;;1.77;;
46391;SDS011;32098;49.448;7.904;2024-01-06T02:19:49;4.87;;;2.30;;
46391;SDS011;32098;49.448;7.904;2024-01-06T02:22:16;5.67;;;2.10;;
46391;SDS011;32098;49.448;7.904;2024-01-06T02:24:42;3.20;;;2.00;;
46391;SDS011;32098;49.448;7.904;2024-01-06T02:27:09;4.60;;;1.83;;
46391;SDS011;32098;49.448;7.904;2024-01-06T02:29:36;5.80;;;2.13;;
46391;SDS011;32098;49.448;7.904;2024-01-06T02:32:03;6.40;;;2.10;;
46391;SDS011;32098;49.448;7.904;2024-01-06T02:34:29;4.13;;;1.97;;
46391;SDS011;32098;49.448;7.904;2024-01-06T02:36:57;3.07;;;1.60;;
46391;SDS011;32098;49.448;7.904;2024-01-06T02:39:23;4.20;;;1.93;;
46391;SDS011;32098;49.448;7.904;2024-01-06T02:41:50;6.20;;;2.13;;
46391;SDS011;32098;49.448;7.904;2024-01-06T02:44:17;4.43;;;2.17;;
46391;SDS011;32098;49.448;7.904;2024-01-06T02:46:44;3.87;;;2.10;;
46391;SDS011;32098;49.448;7.904;2024-01-06T02:49:10;2.43;;;1.70;;
46391;SDS011;32098;49.448;7.904;2024-01-06T02:51:37;7.67;;;2.30;;
46391;SDS011;32098;49.448;7.904;2024-01-06T02:54:04;5.57;;;2.20;;
46391;SDS011;32098;49.448;7.904;2024-01-06T02:56:31;2.30;;;1.43;;
46391;SDS011;32098;49.448;7.904;2024-01-06T02:58:58;4.00;;;1.93;;
46391;SDS011;32098;49.448;7.904;2024-01-06T03:01:24;4.43;;;2.20;;
46391;SDS011;32098;49.448;7.904;2024-01-06T03:03:51;5.03;;;1.80;;
46391;SDS011;32098;49.448;7.904;2024-01-06T03:06:18;3.43;;;2.00;;
46391;SDS011;32098;49.448;7.904;2024-01-06T03:08:45;3.43;;;2.13;;
46391;SDS011;32098;49.448;7.904;2024-01-06T03:11:11;6.83;;;2.10;;
46391;SDS011;32098;49.448;7.904;2024-01-06T03:13:38;4.00;;;1.97;;
46391;SDS011;32098;49.448;7.904;2024-01-06T03:16:05;3.73;;;2.10;;
46391;SDS011;32098;49.448;7.904;2024-01-06T03:18:33;4.87;;;2.23;;
46391;SDS011;32098;49.448;7.904;2024-01-06T03:21:00;3.73;;;1.70;;
46391;SDS011;32098;49.448;7.904;2024-01-06T03:23:27;3.37;;;2.00;;
46391;SDS011;32098;49.448;7.904;2024-01-06T03:25:53;3.57;;;1.87;;
46391;SDS011;32098;49.448;7.904;2024-01-06T03:28:20;3.67;;;2.10;;
46391;SDS011;32098;49.448;7.904;2024-01-06T03:30:46;3.67;;;1.83;;
46391;SDS011;32098;49.448;7.904;2024-01-06T03:33:13;6.07;;;1.90;;
46391;SDS011;32098;49.448;7.904;2024-01-06T03:35:40;5.43;;;2.17;;
46391;SDS011;32098;49.448;7.904;2024-01-06T03:38:07;3.90;;;2.00;;
46391;SDS011;32098;49.448;7.904;2024-01-06T03:40:33;2.37;;;1.80;;
46391;SDS011;32098;49.448;7.904;2024-01-06T03:43:00;4.40;;;2.20;;
46391;SDS011;32098;49.448;7.904;2024-01-06T03:45:27;4.73;;;2.07;;
46391;SDS011;32098;49.448;7.904;2024-01-06T03:47:53;2.80;;;2.20;;
46391;SDS011;32098;49.448;7.904;2024-01-06T03:50:20;3.93;;;2.07;;
46391;SDS011;32098;49.448;7.904;2024-01-06T03:52:47;4.23;;;2.37;;
46391;SDS011;32098;49.448;7.904;2024-01-06T03:55:15;3.70;;;2.33;;
46391;SDS011;32098;49.448;7.904;2024-01-06T03:57:42;6.40;;;2.27;;
46391;SDS011;32098;49.448;7.904;2024-01-06T04:00:09;5.70;;;2.20;;
46391;SDS011;32098;49.448;7.904;2024-01-06T04:02:36;4.10;;;2.57;;
46391;SDS011;32098;49.448;7.904;2024-01-06T04:05:03;5.00;;;2.30;;
46391;SDS011;32098;49.448;7.904;2024-01-06T04:07:31;2.73;;;2.03;;
46391;SDS011;32098;49.448;7.904;2024-01-06T04:09:58;4.50;;;2.30;;
46391;SDS011;32098;49.448;7.904;2024-01-06T04:12:25;5.07;;;2.83;;
46391;SDS011;32098;49.448;7.904;2024-01-06T04:14:51;5.33;;;2.70;;
46391;SDS011;32098;49.448;7.904;2024-01-06T04:17:19;5.53;;;2.43;;
46391;SDS011;32098;49.448;7.904;2024-01-06T04:19:45;3.53;;;2.40;;
46391;SDS011;32098;49.448;7.904;2024-01-06T04:22:13;7.37;;;2.87;;
46391;SDS011;32098;49.448;7.904;2024-01-06T04:24:41;4.73;;;2.63;;
46391;SDS011;32098;49.448;7.904;2024-01-06T04:27:07;4.50;;;3.00;;
46391;SDS011;32098;49.448;7.904;2024-01-06T04:29:34;4.60;;;2.37;;
46391;SDS011;32098;49.448;7.904;2024-01-06T04:32:01;6.17;;;3.13;;
46391;SDS011;32098;49.448;7.904;2024-01-06T04:34:28;7.30;;;2.80;;
46391;SDS011;32098;49.448;7.904;2024-01-06T04:36:54;8.13;;;3.23;;
46391;SDS011;32098;49.448;7.904;2024-01-06T04:39:21;4.73;;;2.77;;
46391;SDS011;32098;49.448;7.904;2024-01-06T04:41:48;5.97;;;2.90;;
46391;SDS011;32098;49.448;7.904;2024-01-06T04:44:14;8.23;;;3.10;;
46391;SDS011;32098;49.448;7.904;2024-01-06T04:46:42;6.23;;;2.90;;
46391;SDS011;32098;49.448;7.904;2024-01-06T04:49:09;4.40;;;3.20;;
46391;SDS011;32098;49.448;7.904;2024-01-06T04:51:37;7.63;;;3.40;;
46391;SDS011;32098;49.448;7.904;2024-01-06T04:54:03;6.03;;;3.50;;
46391;SDS011;32098;49.448;7.904;2024-01-06T04:56:30;10.17;;;5.30;;
46391;SDS011;32098;49.448;7.904;2024-01-06T04:59:01;5.43;;;3.50;;
46391;SDS011;32098;49.448;7.904;2024-01-06T05:01:28;15.37;;;7.20;;
46391;SDS011;32098;49.448;7.904;2024-01-06T05:03:54;11.77;;;5.93;;
46391;SDS011;32098;49.448;7.904;2024-01-06T05:06:22;13.97;;;7.97;;
46391;SDS011;32098;49.448;7.904;2024-01-06T05:08:50;15.17;;;6.83;;
46391;SDS011;32098;49.448;7.904;2024-01-06T05:11:16;11.67;;;6.30;;
46391;SDS011;32098;49.448;7.904;2024-01-06T05:13:43;13.83;;;7.60;;
46391;SDS011;32098;49.448;7.904;2024-01-06T05:16:09;6.93;;;4.63;;
46391;SDS011;32098;49.448;7.904;2024-01-06T05:18:36;5.90;;;4.60;;
46391;SDS011;32098;49.448;7.904;2024-01-06T05:21:03;6.63;;;4.50;;
46391;SDS011;32098;49.448;7.904;2024-01-06T05:23:30;8.40;;;4.30;;
46391;SDS011;32098;49.448;7.904;2024-01-06T05:25:56;6.10;;;4.20;;
46391;SDS011;32098;49.448;7.904;2024-01-06T05:28:23;6.53;;;4.27;;
46391;SDS011;32098;49.448;7.904;2024-01-06T05:30:50;7.47;;;4.27;;
46391;SDS011;32098;49.448;7.904;2024-01-06T05:33:17;11.97;;;7.27;;
46391;SDS011;32098;49.448;7.904;2024-01-06T05:35:43;11.03;;;5.13;;
46391;SDS011;32098;49.448;7.904;2024-01-06T05:38:10;8.80;;;4.93;;
46391;SDS011;32098;49.448;7.904;2024-01-06T05:40:37;11.87;;;7.07;;
46391;SDS011;32098;49.448;7.904;2024-01-06T05:43:04;9.20;;;6.23;;
46391;SDS011;32098;49.448;7.904;2024-01-06T05:45:30;12.07;;;5.57;;
46391;SDS011;32098;49.448;7.904;2024-01-06T05:47:58;8.63;;;5.07;;
46391;SDS011;32098;49.448;7.904;2024-01-06T05:50:25;7.30;;;5.30;;
46391;SDS011;32098;49.448;7.904;2024-01-06T05:52:51;10.20;;;4.83;;
46391;SDS011;32098;49.448;7.904;2024-01-06T05:55:18;8.73;;;4.53;;
46391;SDS011;32098;49.448;7.904;2024-01-06T05:57:45;11.80;;;4.77;;
46391;SDS011;32098;49.448;7.904;2024-01-06T06:00:12;7.93;;;4.33;;
46391;SDS011;32098;49.448;7.904;2024-01-06T06:02:42;6.50;;;4.30;;
46391;SDS011;32098;49.448;7.904;2024-01-06T06:05:08;6.20;;;4.60;;
46391;SDS011;32098;49.448;7.904;2024-01-06T06:07:35;8.43;;;5.07;;
46391;SDS011;32098;49.448;7.904;2024-01-06T06:10:08;9.60;;;5.00;;
46391;SDS011;32098;49.448;7.904;2024-01-06T06:12:37;7.33;;;4.57;;
46391;SDS011;32098;49.448;7.904;2024-01-06T06:15:04;9.20;;;4.80;;
46391;SDS011;32098;49.448;7.904;2024-01-06T06:17:32;8.90;;;5.23;;
46391;SDS011;32098;49.448;7.904;2024-01-06T06:19:59;7.00;;;5.30;;
46391;SDS011;32098;49.448;7.904;2024-01-06T06:22:26;6.73;;;4.87;;
46391;SDS011;32098;49.448;7.904;2024-01-06T06:24:57;11.90;;;6.10;;
46391;SDS011;32098;49.448;7.904;2024-01-06T06:27:24;7.63;;;5.83;;
46391;SDS011;32098;49.448;7.904;2024-01-06T06:29:51;9.97;;;6.07;;
46391;SDS011;32098;49.448;7.904;2024-01-06T06:32:19;7.73;;;5.67;;
46391;SDS011;32098;49.448;7.904;2024-01-06T06:34:46;9.13;;;5.10;;
46391;SDS011;32098;49.448;7.904;2024-01-06T06:37:16;7.27;;;5.50;;
46391;SDS011;32098;49.448;7.904;2024-01-06T06:39:46;9.87;;;5.60;;
46391;SDS011;32098;49.448;7.904;2024-01-06T06:42:13;10.77;;;6.20;;
46391;SDS011;32098;49.448;7.904;2024-01-06T06:44:39;8.93;;;6.27;;
46391;SDS011;32098;49.448;7.904;2024-01-06T06:47:06;9.37;;;5.77;;
46391;SDS011;32098;49.448;7.904;2024-01-06T06:49:33;9.47;;;5.70;;
46391;SDS011;32098;49.448;7.904;2024-01-06T06:52:00;7.27;;;5.60;;
46391;SDS011;32098;49.448;7.904;2024-01-06T06:54:26;9.47;;;5.30;;
46391;SDS011;32098;49.448;7.904;2024-01-06T06:56:53;12.93;;;6.93;;
46391;SDS011;32098;49.448;7.904;2024-01-06T06:59:20;11.90;;;6.90;;
46391;SDS011;32098;49.448;7.904;2024-01-06T07:01:46;9.50;;;5.63;;
46391;SDS011;32098;49.448;7.904;2024-01-06T07:04:13;9.00;;;5.67;;
46391;SDS011;32098;49.448;7.904;2024-01-06T07:06:40;7.83;;;5.37;;
46391;SDS011;32098;49.448;7.904;2024-01-06T07:09:06;7.13;;;4.97;;
46391;SDS011;32098;49.448;7.904;2024-01-06T07:11:33;7.50;;;4.93;;
46391;SDS011;32098;49.448;7.904;2024-01-06T07:13:59;9.10;;;4.80;;
46391;SDS011;32098;49.448;7.904;2024-01-06T07:16:26;9.37;;;4.83;;
46391;SDS011;32098;49.448;7.904;2024-01-06T07:18:53;8.07;;;5.37;;
46391;SDS011;32098;49.448;7.904;2024-01-06T07:21:19;9.83;;;5.53;;
46391;SDS011;32098;49.448;7.904;2024-01-06T07:23:46;8.50;;;5.30;;
46391;SDS011;32098;49.448;7.904;2024-01-06T07:26:13;10.53;;;5.67;;
46391;SDS011;32098;49.448;7.904;2024-01-06T07:28:39;10.53;;;5.90;;
46391;SDS011;32098;49.448;7.904;2024-01-06T07:31:06;9.77;;;6.20;;
46391;SDS011;32098;49.448;7.904;2024-01-06T07:33:33;11.03;;;6.17;;
46391;SDS011;32098;49.448;7.904;2024-01-06T07:36:00;9.63;;;6.57;;
46391;SDS011;32098;49.448;7.904;2024-01-06T07:38:27;10.83;;;6.17;;
46391;SDS011;32098;49.448;7.904;2024-01-06T07:40:54;13.10;;;8.07;;
46391;SDS011;32098;49.448;7.904;2024-01-06T07:43:20;13.17;;;7.73;;
46391;SDS011;32098;49.448;7.904;2024-01-06T07:45:47;12.27;;;7.40;;
46391;SDS011;32098;49.448;7.904;2024-01-06T07:48:14;12.90;;;7.23;;
46391;SDS011;32098;49.448;7.904;2024-01-06T07:50:41;11.50;;;7.43;;
46391;SDS011;32098;49.448;7.904;2024-01-06T07:53:08;12.03;;;7.53;;
46391;SDS011;32098;49.448;7.904;2024-01-06T07:55:34;16.37;;;7.17;;
46391;SDS011;32098;49.448;7.904;2024-01-06T07:58:01;14.47;;;7.77;;
46391;SDS011;32098;49.448;7.904;2024-01-06T08:00:28;13.17;;;7.60;;
46391;SDS011;32098;49.448;7.904;2024-01-06T08:05:47;12.30;;;7.90;;
46391;SDS011;32098;49.448;7.904;2024-01-06T08:08:14;14.73;;;7.37;;
46391;SDS011;32098;49.448;7.904;2024-01-06T08:10:43;13.37;;;7.60;;
46391;SDS011;32098;49.448;7.904;2024-01-06T08:13:09;12.30;;;8.03;;
46391;SDS011;32098;49.448;7.904;2024-01-06T08:15:36;12.67;;;7.50;;
46391;SDS011;32098;49.448;7.904;2024-01-06T08:18:02;13.37;;;7.50;;
46391;SDS011;32098;49.448;7.904;2024-01-06T08:20:29;15.80;;;8.80;;
46391;SDS011;32098;49.448;7.904;2024-01-06T08:22:56;15.90;;;9.50;;
46391;SDS011;32098;49.448;7.904;2024-01-06T08:25:23;15.03;;;8.97;;
46391;SDS011;32098;49.448;7.904;2024-01-06T08:27:50;15.40;;;9.33;;
46391;SDS011;32098;49.448;7.904;2024-01-06T08:30:17;14.47;;;9.57;;
46391;SDS011;32098;49.448;7.904;2024-01-06T08:32:43;17.60;;;11.20;;
46391;SDS011;32098;49.448;7.904;2024-01-06T08:35:10;16.67;;;9.87;;
46391;SDS011;32098;49.448;7.904;2024-01-06T08:37:37;16.00;;;9.27;;
46391;SDS011;32098;49.448;7.904;2024-01-06T08:40:03;12.40;;;8.33;;
46391;SDS011;32098;49.448;7.904;2024-01-06T08:42:31;16.27;;;8.37;;
46391;SDS011;32098;49.448;7.904;2024-01-06T08:44:58;15.50;;;8.90;;
46391;SDS011;32098;49.448;7.904;2024-01-06T08:47:24;13.40;;;8.83;;
46391;SDS011;32098;49.448;7.904;2024-01-06T08:49:51;16.70;;;10.17;;
46391;SDS011;32098;49.448;7.904;2024-01-06T08:52:17;21.00;;;11.80;;
46391;SDS011;32098;49.448;7.904;2024-01-06T08:54:44;22.03;;;12.73;;
46391;SDS011;32098;49.448;7.904;2024-01-06T08:57:11;16.13;;;9.83;;
46391;SDS011;32098;49.448;7.904;2024-01-06T08:59:37;15.97;;;9.50;;
46391;SDS011;32098;49.448;7.904;2024-01-06T09:02:04;16.47;;;9.20;;
46391;SDS011;32098;49.448;7.904;2024-01-06T09:04:31;17.93;;;9.90;;
46391;SDS011;32098;49.448;7.904;2024-01-06T09:06:58;16.57;;;10.40;;
46391;SDS011;32098;49.448;7.904;2024-01-06T09:09:24;14.17;;;8.33;;
46391;SDS011;32098;49.448;7.904;2024-01-06T09:11:51;13.03;;;8.17;;
46391;SDS011;32098;49.448;7.904;2024-01-06T09:14:18;13.90;;;8.70;;
46391;SDS011;32098;49.448;7.904;2024-01-06T09:16:45;12.87;;;8.10;;
46391;SDS011;32098;49.448;7.904;2024-01-06T09:19:11;13.60;;;9.60;;
46391;SDS011;32098;49.448;7.904;2024-01-06T09:21:38;12.63;;;8.60;;
46391;SDS011;32098;49.448;7.904;2024-01-06T09:24:05;18.53;;;10.30;;
46391;SDS011;32098;49.448;7.904;2024-01-06T09:26:33;14.20;;;9.97;;
46391;SDS011;32098;49.448;7.904;2024-01-06T09:29:03;12.87;;;9.17;;
46391;SDS011;32098;49.448;7.904;2024-01-06T09:31:29;15.60;;;11.10;;
46391;SDS011;32098;49.448;7.904;2024-01-06T09:33:59;13.57;;;8.47;;
46391;SDS011;32098;49.448;7.904;2024-01-06T09:36:28;13.30;;;8.40;;
46391;SDS011;32098;49.448;7.904;2024-01-06T09:38:57;10.27;;;7.50;;
46391;SDS011;32098;49.448;7.904;2024-01-06T09:41:23;8.83;;;6.63;;
46391;SDS011;32098;49.448;7.904;2024-01-06T09:43:51;11.40;;;7.33;;
46391;SDS011;32098;49.448;7.904;2024-01-06T09:46:23;12.60;;;8.40;;
46391;SDS011;32098;49.448;7.904;2024-01-06T09:48:55;12.67;;;7.53;;
46391;SDS011;32098;49.448;7.904;2024-01-06T09:51:23;12.00;;;7.73;;
46391;SDS011;32098;49.448;7.904;2024-01-06T09:54:00;17.20;;;10.20;;
46391;SDS011;32098;49.448;7.904;2024-01-06T09:56:28;12.67;;;8.03;;
46391;SDS011;32098;49.448;7.904;2024-01-06T09:58:55;12.23;;;8.90;;
46391;SDS011;32098;49.448;7.904;2024-01-06T10:01:22;13.57;;;9.47;;
46391;SDS011;32098;49.448;7.904;2024-01-06T10:03:49;14.33;;;9.67;;
46391;SDS011;32098;49.448;7.904;2024-01-06T10:06:16;11.93;;;8.53;;
46391;SDS011;32098;49.448;7.904;2024-01-06T10:08:47;12.67;;;8.70;;
46391;SDS011;32098;49.448;7.904;2024-01-06T10:11:15;12.10;;;8.33;;
46391;SDS011;32098;49.448;7.904;2024-01-06T10:13:41;13.50;;;8.83;;
46391;SDS011;32098;49.448;7.904;2024-01-06T10:16:08;12.50;;;8.47;;
46391;SDS011;32098;49.448;7.904;2024-01-06T10:18:36;13.80;;;8.67;;
46391;SDS011;32098;49.448;7.904;2024-01-06T10:21:03;13.77;;;9.17;;
46391;SDS011;32098;49.448;7.904;2024-01-06T10:23:32;13.40;;;8.07;;
46391;SDS011;32098;49.448;7.904;2024-01-06T10:25:59;12.63;;;7.87;;
46391;SDS011;32098;49.448;7.904;2024-01-06T10:28:30;9.93;;;7.20;;
46391;SDS011;32098;49.448;7.904;2024-01-06T10:30:57;11.50;;;7.33;;
46391;SDS011;32098;49.448;7.904;2024-01-06T10:33:25;12.97;;;8.43;;
46391;SDS011;32098;49.448;7.904;2024-01-06T10:35:52;12.80;;;7.77;;
46391;SDS011;32098;49.448;7.904;2024-01-06T10:38:21;11.27;;;8.30;;
46391;SDS011;32098;49.448;7.904;2024-01-06T10:41:04;12.53;;;8.03;;
46391;SDS011;32098;49.448;7.904;2024-01-06T10:43:34;15.47;;;9.27;;
46391;SDS011;32098;49.448;7.904;2024-01-06T10:46:04;15.40;;;8.70;;
46391;SDS011;32098;49.448;7.904;2024-01-06T10:48:32;11.27;;;8.13;;
46391;SDS011;32098;49.448;7.904;2024-01-06T10:51:00;14.63;;;8.90;;
46391;SDS011;32098;49.448;7.904;2024-01-06T10:53:28;13.80;;;9.37;;
46391;SDS011;32098;49.448;7.904;2024-01-06T10:55:56;14.63;;;9.03;;
46391;SDS011;32098;49.448;7.904;2024-01-06T10:58:24;15.63;;;9.60;;
46391;SDS011;32098;49.448;7.904;2024-01-06T11:00:51;9.73;;;7.37;;
46391;SDS011;32098;49.448;7.904;2024-01-06T11:03:18;14.47;;;8.27;;
46391;SDS011;32098;49.448;7.904;2024-01-06T11:05:45;19.40;;;10.63;;
46391;SDS011;32098;49.448;7.904;2024-01-06T11:08:12;13.50;;;9.13;;
46391;SDS011;32098;49.448;7.904;2024-01-06T11:10:39;15.33;;;9.50;;
46391;SDS011;32098;49.448;7.904;2024-01-06T11:13:13;11.90;;;7.60;;
46391;SDS011;32098;49.448;7.904;2024-01-06T11:15:47;12.00;;;7.03;;
46391;SDS011;32098;49.448;7.904;2024-01-06T11:23:39;13.83;;;7.57;;
46391;SDS011;32098;49.448;7.904;2024-01-06T11:26:07;8.43;;;6.53;;
46391;SDS011;32098;49.448;7.904;2024-01-06T11:28:46;10.13;;;6.07;;
46391;SDS011;32098;49.448;7.904;2024-01-06T11:31:13;9.73;;;6.10;;
46391;SDS011;32098;49.448;7.904;2024-01-06T11:33:41;8.63;;;5.50;;
46391;SDS011;32098;49.448;7.904;2024-01-06T11:36:10;11.60;;;7.10;;
46391;SDS011;32098;49.448;7.904;2024-01-06T11:38:40;10.93;;;7.10;;
46391;SDS011;32098;49.448;7.904;2024-01-06T11:41:07;11.47;;;6.53;;
46391;SDS011;32098;49.448;7.904;2024-01-06T11:43:34;10.20;;;6.97;;
46391;SDS011;32098;49.448;7.904;2024-01-06T11:46:02;9.63;;;5.77;;
46391;SDS011;32098;49.448;7.904;2024-01-06T11:48:30;9.20;;;5.53;;
46391;SDS011;32098;49.448;7.904;2024-01-06T11:50:58;10.23;;;5.77;;
46391;SDS011;32098;49.448;7.904;2024-01-06T11:53:28;9.93;;;6.77;;
46391;SDS011;32098;49.448;7.904;2024-01-06T11:55:55;11.03;;;6.50;;
46391;SDS011;32098;49.448;7.904;2024-01-06T11:58:21;11.40;;;7.10;;
46391;SDS011;32098;49.448;7.904;2024-01-06T12:00:57;8.80;;;5.50;;
46391;SDS011;32098;49.448;7.904;2024-01-06T12:03:24;7.97;;;5.80;;
46391;SDS011;32098;49.448;7.904;2024-01-06T12:05:59;9.40;;;6.07;;
46391;SDS011;32098;49.448;7.904;2024-01-06T12:08:27;8.80;;;5.80;;
46391;SDS011;32098;49.448;7.904;2024-01-06T12:11:02;11.03;;;7.57;;
46391;SDS011;32098;49.448;7.904;2024-01-06T12:13:29;9.33;;;6.43;;
46391;SDS011;32098;49.448;7.904;2024-01-06T12:15:56;8.27;;;6.00;;
46391;SDS011;32098;49.448;7.904;2024-01-06T12:18:25;9.80;;;5.63;;
46391;SDS011;32098;49.448;7.904;2024-01-06T12:20:52;10.10;;;6.53;;
46391;SDS011;32098;49.448;7.904;2024-01-06T12:23:26;9.87;;;6.53;;
46391;SDS011;32098;49.448;7.904;2024-01-06T12:25:54;7.07;;;5.07;;
46391;SDS011;32098;49.448;7.904;2024-01-06T12:28:22;6.53;;;4.73;;
46391;SDS011;32098;49.448;7.904;2024-01-06T12:30:49;7.07;;;5.17;;
46391;SDS011;32098;49.448;7.904;2024-01-06T12:33:16;7.07;;;6.10;;
46391;SDS011;32098;49.448;7.904;2024-01-06T12:35:43;7.07;;;5.97;;
46391;SDS011;32098;49.448;7.904;2024-01-06T12:38:09;6.40;;;5.70;;
46391;SDS011;32098;49.448;7.904;2024-01-06T12:40:36;7.40;;;5.40;;
46391;SDS011;32098;49.448;7.904;2024-01-06T12:43:04;9.70;;;7.70;;
46391;SDS011;32098;49.448;7.904;2024-01-06T12:45:31;10.70;;;7.97;;
46391;SDS011;32098;49.448;7.904;2024-01-06T12:47:58;9.10;;;6.30;;
46391;SDS011;32098;49.448;7.904;2024-01-06T12:50:25;7.83;;;5.07;;
46391;SDS011;32098;49.448;7.904;2024-01-06T12:52:52;10.43;;;6.70;;
46391;SDS011;32098;49.448;7.904;2024-01-06T12:55:18;7.87;;;5.00;;
46391;SDS011;32098;49.448;7.904;2024-01-06T12:57:45;5.70;;;4.47;;
46391;SDS011;32098;49.448;7.904;2024-01-06T13:00:12;6.17;;;4.10;;
46391;SDS011;32098;49.448;7.904;2024-01-06T13:02:39;7.57;;;4.60;;
46391;SDS011;32098;49.448;7.904;2024-01-06T13:05:06;4.93;;;4.07;;
46391;SDS011;32098;49.448;7.904;2024-01-06T13:07:35;4.83;;;3.67;;
46391;SDS011;32098;49.448;7.904;2024-01-06T13:10:02;7.30;;;4.47;;
46391;SDS011;32098;49.448;7.904;2024-01-06T13:12:29;6.23;;;4.87;;
46391;SDS011;32098;49.448;7.904;2024-01-06T13:14:56;17.73;;;11.30;;
46391;SDS011;32098;49.448;7.904;2024-01-06T13:17:23;13.40;;;8.50;;
46391;SDS011;32098;49.448;7.904;2024-01-06T13:19:50;6.67;;;5.20;;
46391;SDS011;32098;49.448;7.904;2024-01-06T13:22:17;6.27;;;4.47;;
46391;SDS011;32098;49.448;7.904;2024-01-06T13:24:46;4.77;;;3.90;;
46391;SDS011;32098;49.448;7.904;2024-01-06T13:27:15;4.70;;;3.47;;
46391;SDS011;32098;49.448;7.904;2024-01-06T13:29:42;3.47;;;2.90;;
46391;SDS011;32098;49.448;7.904;2024-01-06T13:32:09;3.20;;;2.80;;
46391;SDS011;32098;49.448;7.904;2024-01-06T13:34:37;4.23;;;3.37;;
46391;SDS011;32098;49.448;7.904;2024-01-06T13:37:04;4.27;;;3.30;;
46391;SDS011;32098;49.448;7.904;2024-01-06T13:39:33;3.97;;;3.30;;
46391;SDS011;32098;49.448;7.904;2024-01-06T13:42:00;3.40;;;3.03;;
46391;SDS011;32098;49.448;7.904;2024-01-06T13:44:26;5.80;;;5.00;;
46391;SDS011;32098;49.448;7.904;2024-01-06T13:46:53;6.07;;;4.60;;
46391;SDS011;32098;49.448;7.904;2024-01-06T13:49:21;5.90;;;4.17;;
46391;SDS011;32098;49.448;7.904;2024-01-06T13:51:50;11.70;;;8.93;;
46391;SDS011;32098;49.448;7.904;2024-01-06T13:54:16;23.37;;;17.57;;
46391;SDS011;32098;49.448;7.904;2024-01-06T13:56:45;11.63;;;8.93;;
46391;SDS011;32098;49.448;7.904;2024-01-06T13:59:12;7.67;;;5.43;;
46391;SDS011;32098;49.448;7.904;2024-01-06T14:01:39;6.83;;;5.67;;
46391;SDS011;32098;49.448;7.904;2024-01-06T14:04:06;7.83;;;5.40;;
46391;SDS011;32098;49.448;7.904;2024-01-06T14:06:33;8.27;;;6.40;;
46391;SDS011;32098;49.448;7.904;2024-01-06T14:09:00;7.57;;;5.07;;
46391;SDS011;32098;49.448;7.904;2024-01-06T14:11:27;6.63;;;4.03;;
46391;SDS011;32098;49.448;7.904;2024-01-06T14:13:53;4.90;;;4.40;;
46391;SDS011;32098;49.448;7.904;2024-01-06T14:16:20;7.57;;;6.20;;
46391;SDS011;32098;49.448;7.904;2024-01-06T14:18:47;7.77;;;5.50;;
46391;SDS011;32098;49.448;7.904;2024-01-06T14:21:14;5.43;;;4.57;;
46391;SDS011;32098;49.448;7.904;2024-01-06T14:23:42;5.43;;;4.03;;
46391;SDS011;32098;49.448;7.904;2024-01-06T14:26:08;7.63;;;4.80;;
46391;SDS011;32098;49.448;7.904;2024-01-06T14:28:35;7.43;;;4.90;;
46391;SDS011;32098;49.448;7.904;2024-01-06T14:31:02;4.37;;;3.73;;
46391;SDS011;32098;49.448;7.904;2024-01-06T14:33:29;6.00;;;4.23;;
46391;SDS011;32098;49.448;7.904;2024-01-06T14:35:55;4.67;;;3.53;;
46391;SDS011;32098;49.448;7.904;2024-01-06T14:38:22;5.77;;;3.70;;
46391;SDS011;32098;49.448;7.904;2024-01-06T14:40:49;4.77;;;3.70;;
46391;SDS011;32098;49.448;7.904;2024-01-06T14:43:15;5.53;;;3.90;;
46391;SDS011;32098;49.448;7.904;2024-01-06T14:45:42;5.30;;;3.67;;
46391;SDS011;32098;49.448;7.904;2024-01-06T14:48:08;10.87;;;4.60;;
46391;SDS011;32098;49.448;7.904;2024-01-06T14:50:35;12.80;;;6.27;;